createdAt,value
2022-11-01T00:01:10.515Z,13.9
2022-11-01T00:03:37.095Z,14.7
2022-11-01T00:06:03.741Z,13.4
2022-11-01T00:08:28.850Z,13.5
2022-11-01T00:10:55.533Z,12.8
2022-11-01T00:13:22.094Z,12.3
2022-11-01T00:15:48.787Z,11.5
2022-11-01T00:18:15.392Z,12
2022-11-01T00:20:41.962Z,12.5
2022-11-01T00:23:08.660Z,12.7
2022-11-01T00:28:01.833Z,13.3
2022-11-01T00:30:28.510Z,13.2
2022-11-01T00:32:55.126Z,13.3
2022-11-01T00:37:48.377Z,14.9
2022-11-01T00:42:41.572Z,16.2
2022-11-01T00:45:06.778Z,15.1
2022-11-01T00:47:31.821Z,20.2
2022-11-01T00:52:25.102Z,14.7
2022-11-01T00:54:51.735Z,19
2022-11-01T00:57:18.321Z,18.9
2022-11-01T00:59:44.974Z,19.1
2022-11-01T01:02:11.644Z,17.8
2022-11-01T01:04:38.193Z,17.8
2022-11-01T01:07:04.831Z,18.6
2022-11-01T01:09:31.457Z,18.9
2022-11-01T01:11:58.114Z,15.1
2022-11-01T01:14:24.690Z,15.9
2022-11-01T01:16:51.317Z,18.6
2022-11-01T01:19:16.440Z,18.3
2022-11-01T01:21:43.139Z,17.5
2022-11-01T01:26:36.347Z,17.2
2022-11-01T01:29:01.440Z,17.4
2022-11-01T01:31:26.595Z,16.9
2022-11-01T01:33:53.191Z,15.8
2022-11-01T01:36:19.841Z,15.6
2022-11-01T01:38:46.444Z,16.4
2022-11-01T01:41:13.065Z,17
2022-11-01T01:43:39.765Z,17.2
2022-11-01T01:46:06.314Z,15.8
2022-11-01T01:48:33.075Z,17.3
2022-11-01T01:50:59.554Z,15.1
2022-11-01T01:53:26.188Z,16.1
2022-11-01T01:55:51.323Z,18
2022-11-01T01:58:16.470Z,14.7
2022-11-01T02:00:43.058Z,14.6
2022-11-01T02:03:09.680Z,15.8
2022-11-01T02:05:36.337Z,14.2
2022-11-01T02:08:02.953Z,15.6
2022-11-01T02:10:29.594Z,15.5
2022-11-01T02:12:56.174Z,19.1
2022-11-01T02:15:22.794Z,16.5
2022-11-01T02:17:49.421Z,14.8
2022-11-01T02:20:16.098Z,14.9
2022-11-01T02:25:07.807Z,18.1
2022-11-01T02:27:32.924Z,16.9
2022-11-01T02:29:59.558Z,14.7
2022-11-01T02:32:26.169Z,17.5
2022-11-01T02:34:52.789Z,15.8
2022-11-01T02:37:19.439Z,14.6
2022-11-01T02:39:46.081Z,16.3
2022-11-01T02:42:12.670Z,16
2022-11-01T02:44:39.295Z,15.6
2022-11-01T02:47:05.926Z,16.7
2022-11-01T02:49:31.049Z,14
2022-11-01T02:51:56.173Z,14.6
2022-11-01T02:54:22.810Z,16.5
2022-11-01T02:56:49.458Z,16.3
2022-11-01T02:59:16.041Z,14.9
2022-11-01T03:01:42.688Z,15.9
2022-11-01T03:04:09.288Z,16.2
2022-11-01T03:09:02.530Z,16.1
2022-11-01T03:11:29.166Z,16.3
2022-11-01T03:13:55.779Z,17
2022-11-01T03:16:22.408Z,16.2
2022-11-01T03:18:49.027Z,15.5
2022-11-01T03:21:15.659Z,16.4
2022-11-01T03:23:40.785Z,16.4
2022-11-01T03:26:07.408Z,16.1
2022-11-01T03:28:34.017Z,15.3
2022-11-01T03:31:00.710Z,16.3
2022-11-01T03:33:27.262Z,15.6
2022-11-01T03:35:53.908Z,15.2
2022-11-01T03:38:20.536Z,15
2022-11-01T03:40:47.135Z,15.4
2022-11-01T03:43:13.757Z,14.3
2022-11-01T03:45:40.388Z,15.3
2022-11-01T03:48:07.029Z,15.1
2022-11-01T03:50:33.625Z,14.8
2022-11-01T03:53:00.249Z,15.1
2022-11-01T03:55:26.873Z,15.5
2022-11-01T03:57:51.997Z,15.8
2022-11-01T04:00:18.628Z,14.5
2022-11-01T04:02:45.233Z,15.8
2022-11-01T04:05:11.869Z,15.4
2022-11-01T04:07:38.493Z,15.1
2022-11-01T04:10:05.116Z,15.3
2022-11-01T04:12:31.740Z,15.5
2022-11-01T04:19:51.632Z,14.4
2022-11-01T04:22:18.249Z,14.6
2022-11-01T04:24:44.863Z,14.4
2022-11-01T04:27:11.503Z,14.7
2022-11-01T04:29:36.598Z,14.7
2022-11-01T04:32:03.331Z,12.8
2022-11-01T04:39:23.089Z,13.5
2022-11-01T04:41:48.233Z,15.1
2022-11-01T04:44:13.350Z,14.7
2022-11-01T04:46:39.975Z,14.1
2022-11-01T04:51:33.256Z,13.6
2022-11-01T04:53:59.841Z,15.3
2022-11-01T04:56:26.474Z,15.6
2022-11-01T04:58:53.094Z,14.4
2022-11-01T05:01:19.709Z,14.6
2022-11-01T05:03:46.349Z,14.5
2022-11-01T05:06:12.964Z,16.4
2022-11-01T05:08:39.586Z,15.3
2022-11-01T05:11:06.205Z,14.9
2022-11-01T05:13:32.829Z,14.5
2022-11-01T05:15:59.487Z,14.8
2022-11-01T05:18:24.594Z,13.8
2022-11-01T05:20:51.212Z,10.9
2022-11-01T05:23:17.828Z,6.7
2022-11-01T05:25:44.453Z,5.5
2022-11-01T05:28:11.077Z,4.7
2022-11-01T05:30:37.697Z,4.3
2022-11-01T05:33:04.345Z,3.5
2022-11-01T05:35:29.462Z,3
2022-11-01T05:37:54.577Z,4
2022-11-01T05:40:21.223Z,3.7
2022-11-01T05:42:47.830Z,3.5
2022-11-01T05:45:14.472Z,3.3
2022-11-01T05:47:41.068Z,3
2022-11-01T05:50:07.710Z,3.3
2022-11-01T05:52:34.320Z,3.2
2022-11-01T05:55:00.937Z,3.2
2022-11-01T05:57:27.557Z,3.7
2022-11-01T05:59:54.184Z,3.5
2022-11-01T06:02:20.808Z,2.6
2022-11-01T06:04:47.436Z,3.7
2022-11-01T06:07:14.160Z,3.1
2022-11-01T06:09:39.183Z,3.5
2022-11-01T06:12:05.845Z,3
2022-11-01T06:14:32.427Z,3.3
2022-11-01T06:19:25.718Z,3.7
2022-11-01T06:21:52.293Z,3.1
2022-11-01T06:24:18.917Z,3.5
2022-11-01T06:26:45.538Z,3.5
2022-11-01T06:29:12.163Z,3.5
2022-11-01T06:34:05.433Z,3.9
2022-11-01T06:36:32.055Z,4.5
2022-11-01T06:41:23.794Z,3.7
2022-11-01T06:43:48.933Z,3
2022-11-01T06:46:15.588Z,3.8
2022-11-01T06:48:40.679Z,4.5
2022-11-01T06:51:07.332Z,3.9
2022-11-01T06:53:33.930Z,4
2022-11-01T06:56:00.551Z,3.9
2022-11-01T06:58:27.170Z,4.6
2022-11-01T07:00:53.810Z,4.3
2022-11-01T07:03:20.421Z,6.5
2022-11-01T07:05:47.044Z,5.6
2022-11-01T07:08:13.716Z,4.8
2022-11-01T07:13:05.436Z,5
2022-11-01T07:15:30.545Z,4.1
2022-11-01T07:17:57.230Z,4.5
2022-11-01T07:20:23.789Z,4.9
2022-11-01T07:22:50.417Z,4.4
2022-11-01T07:25:17.047Z,4.2
2022-11-01T07:27:43.655Z,3.8
2022-11-01T07:32:36.896Z,4.1
2022-11-01T07:35:02.037Z,4.3
2022-11-01T07:37:27.166Z,3.5
2022-11-01T07:39:53.782Z,3.7
2022-11-01T07:42:20.487Z,4.1
2022-11-01T07:44:47.021Z,4.3
2022-11-01T07:47:13.648Z,3.7
2022-11-01T07:49:40.264Z,3.7
2022-11-01T07:52:06.892Z,4.7
2022-11-01T07:54:33.520Z,5
2022-11-01T07:57:00.215Z,4.5
2022-11-01T07:59:26.789Z,3.4
2022-11-01T08:01:53.424Z,3.2
2022-11-01T08:04:18.521Z,3.3
2022-11-01T08:06:43.685Z,3.6
2022-11-01T08:09:10.308Z,28.7
2022-11-01T08:11:36.974Z,3.7
2022-11-01T08:16:30.131Z,11.6
2022-11-01T08:18:56.768Z,8.2
2022-11-01T08:21:23.424Z,7.1
2022-11-01T08:23:49.998Z,5.8
2022-11-01T08:26:16.674Z,4.4
2022-11-01T08:28:43.262Z,5.3
2022-11-01T08:31:09.922Z,5.1
2022-11-01T08:33:36.513Z,3.8
2022-11-01T08:36:03.143Z,3
2022-11-01T08:38:28.295Z,3.2
2022-11-01T08:40:54.846Z,3
2022-11-01T08:43:21.514Z,4.4
2022-11-01T08:45:48.101Z,4.3
2022-11-01T08:48:14.772Z,3.7
2022-11-01T08:50:41.349Z,4.1
2022-11-01T08:53:07.968Z,4.4
2022-11-01T08:55:34.643Z,3.8
2022-11-01T08:57:59.769Z,3.9
2022-11-01T09:00:24.851Z,2.9
2022-11-01T09:02:51.518Z,2.2
2022-11-01T09:05:18.160Z,2.3
2022-11-01T09:07:44.823Z,2.5
2022-11-01T09:10:11.424Z,2.7
2022-11-01T09:12:37.973Z,2.5
2022-11-01T09:15:04.601Z,2.3
2022-11-01T09:17:31.266Z,2.8
2022-11-01T09:19:57.843Z,1.9
2022-11-01T09:22:24.474Z,2.6
2022-11-01T09:24:51.116Z,2.5
2022-11-01T09:27:17.705Z,1.9
2022-11-01T09:29:44.355Z,1.8
2022-11-01T09:32:09.472Z,1.3
2022-11-01T09:34:36.101Z,1.8
2022-11-01T09:37:02.768Z,1.6
2022-11-01T09:39:29.373Z,1.4
2022-11-01T09:41:55.942Z,1.2
2022-11-01T09:44:22.571Z,1.2
2022-11-01T09:46:49.234Z,1.2
2022-11-01T09:49:15.807Z,1.2
2022-11-01T09:51:42.489Z,1.3
2022-11-01T09:54:09.148Z,1.5
2022-11-01T09:56:35.684Z,1.1
2022-11-01T09:59:02.325Z,1.2
2022-11-01T10:01:29.001Z,1.1
2022-11-01T10:03:54.153Z,1.2
2022-11-01T10:06:20.719Z,0.7
2022-11-01T10:08:47.382Z,1
2022-11-01T10:11:13.990Z,1
2022-11-01T10:13:40.573Z,0.9
2022-11-01T10:16:07.203Z,1.1
2022-11-01T10:18:33.782Z,0.9
2022-11-01T10:21:00.424Z,1.1
2022-11-01T10:23:27.033Z,1.2
2022-11-01T10:25:53.655Z,0.8
2022-11-01T10:28:20.379Z,1
2022-11-01T10:30:46.949Z,0.7
2022-11-01T10:33:13.583Z,1
2022-11-01T10:35:38.674Z,0.9
2022-11-01T10:38:05.260Z,0.8
2022-11-01T10:40:31.919Z,0.9
2022-11-01T10:42:58.512Z,0.5
2022-11-01T10:45:25.262Z,0.8
2022-11-01T10:47:51.761Z,0.8
2022-11-01T10:50:18.389Z,0.8
2022-11-01T10:52:45.002Z,0.8
2022-11-01T10:55:11.641Z,0.9
2022-11-01T10:57:38.250Z,0.8
2022-11-01T11:00:04.904Z,0.7
2022-11-01T11:02:31.491Z,0.7
2022-11-01T11:04:58.274Z,1
2022-11-01T11:07:23.243Z,1.1
2022-11-01T11:09:50.033Z,0.8
2022-11-01T11:12:16.648Z,0.9
2022-11-01T11:14:43.252Z,0.9
2022-11-01T11:17:09.835Z,1
2022-11-01T11:19:36.500Z,1.2
2022-11-01T11:22:03.110Z,1
2022-11-01T11:24:29.768Z,0.8
2022-11-01T11:26:56.222Z,0.8
2022-11-01T11:29:23.034Z,0.7
2022-11-01T11:31:49.606Z,0.8
2022-11-01T11:34:16.272Z,0.8
2022-11-01T11:36:42.834Z,0.8
2022-11-01T11:39:07.972Z,0.7
2022-11-01T11:41:34.587Z,0.6
2022-11-01T11:44:01.258Z,0.7
2022-11-01T11:46:27.828Z,0.8
2022-11-01T11:48:54.473Z,0.5
2022-11-01T11:51:21.106Z,0.6
2022-11-01T11:53:47.577Z,0.9
2022-11-01T11:56:14.285Z,0.7
2022-11-01T11:58:40.949Z,0.5
2022-11-01T12:01:07.578Z,0.7
2022-11-01T12:03:34.168Z,1
2022-11-01T12:06:00.762Z,0.6
2022-11-01T12:08:27.388Z,0.6
2022-11-01T12:10:52.549Z,0.7
2022-11-01T12:13:19.089Z,0.6
2022-11-01T12:15:45.691Z,0.6
2022-11-01T12:18:12.370Z,0.8
2022-11-01T12:20:39.028Z,0.8
2022-11-01T12:23:05.690Z,1.1
2022-11-01T12:25:32.301Z,0.8
2022-11-01T12:27:58.914Z,0.8
2022-11-01T12:30:25.426Z,0.8
2022-11-01T12:32:52.150Z,0.9
2022-11-01T12:37:45.364Z,0.6
2022-11-01T12:40:12.055Z,1
2022-11-01T12:42:37.071Z,0.7
2022-11-01T12:45:03.725Z,1
2022-11-01T12:47:30.328Z,1
2022-11-01T12:49:57.019Z,1.2
2022-11-01T12:52:23.595Z,1.1
2022-11-01T12:54:50.275Z,1.4
2022-11-01T12:57:16.835Z,1.4
2022-11-01T12:59:43.500Z,1.3
2022-11-01T13:02:10.131Z,1.4
2022-11-01T13:04:36.742Z,1.9
2022-11-01T13:07:03.334Z,1.7
2022-11-01T13:09:29.958Z,1.5
2022-11-01T13:11:56.624Z,1.2
2022-11-01T13:14:21.731Z,1.6
2022-11-01T13:16:48.400Z,1.4
2022-11-01T13:24:08.152Z,1.6
2022-11-01T13:26:34.760Z,1.6
2022-11-01T13:28:59.995Z,1.9
2022-11-01T13:31:25.092Z,1.6
2022-11-01T13:33:51.770Z,1.6
2022-11-01T13:36:18.326Z,1.5
2022-11-01T13:38:44.941Z,1.3
2022-11-01T13:41:11.594Z,1.6
2022-11-01T13:46:04.826Z,1.5
2022-11-01T13:48:31.405Z,1.5
2022-11-01T13:50:58.009Z,1.9
2022-11-01T13:53:24.643Z,1.7
2022-11-01T13:55:51.402Z,1.5
2022-11-01T14:00:43.911Z,2
2022-11-01T14:03:08.936Z,1.5
2022-11-01T14:05:34.061Z,1.6
2022-11-01T14:10:27.419Z,1.7
2022-11-01T14:12:53.929Z,1.7
2022-11-01T14:15:20.579Z,1.7
2022-11-01T14:17:47.175Z,1.7
2022-11-01T14:20:13.891Z,2.1
2022-11-01T14:22:40.440Z,1.7
2022-11-01T14:25:07.158Z,2.2
2022-11-01T14:27:33.657Z,1.6
2022-11-01T14:30:00.407Z,1.6
2022-11-01T14:32:26.893Z,2.7
2022-11-01T14:34:53.534Z,2
2022-11-01T14:37:20.185Z,3.1
2022-11-01T14:39:46.869Z,4
2022-11-01T14:42:11.900Z,2.5
2022-11-01T14:44:38.692Z,2.5
2022-11-01T14:47:05.258Z,2.5
2022-11-01T14:49:31.788Z,2.6
2022-11-01T14:51:58.424Z,2.8
2022-11-01T14:54:23.553Z,2.1
2022-11-01T14:59:15.294Z,1.8
2022-11-01T15:01:40.415Z,3.3
2022-11-01T15:04:05.556Z,4.1
2022-11-01T15:06:32.229Z,3.2
2022-11-01T15:08:58.857Z,2.7
2022-11-01T15:11:25.483Z,2.2
2022-11-01T15:13:52.048Z,2.3
2022-11-01T15:16:18.640Z,2.3
2022-11-01T15:18:45.278Z,1.9
2022-11-01T15:21:11.928Z,2.8
2022-11-01T15:23:38.505Z,2.4
2022-11-01T15:26:05.173Z,1.9
2022-11-01T15:28:30.263Z,2
2022-11-01T15:30:55.399Z,2
2022-11-01T15:33:22.041Z,2.1
2022-11-01T15:35:48.633Z,2
2022-11-01T15:38:15.278Z,1.8
2022-11-01T15:43:08.521Z,2
2022-11-01T15:48:01.782Z,2.1
2022-11-01T15:52:55.041Z,2.1
2022-11-01T15:57:48.279Z,3.2
2022-11-01T16:00:14.944Z,3.1
2022-11-01T16:02:40.008Z,3.3
2022-11-01T16:05:05.144Z,2.5
2022-11-01T16:07:30.287Z,2.6
2022-11-01T16:12:23.539Z,4.5
2022-11-01T16:14:50.128Z,4
2022-11-01T16:17:16.821Z,2.9
2022-11-01T16:22:09.999Z,2.2
2022-11-01T16:27:03.301Z,1.9
2022-11-01T16:29:29.869Z,2.1
2022-11-01T16:36:49.796Z,3.9
2022-11-01T16:39:14.857Z,2.9
2022-11-01T16:41:41.521Z,2.5
2022-11-01T16:46:33.261Z,3.2
2022-11-01T16:48:58.364Z,3.5
2022-11-01T16:51:23.519Z,2.9
2022-11-01T16:53:50.116Z,2.5
2022-11-01T16:56:16.740Z,4.2
2022-11-01T17:01:09.991Z,5.4
2022-11-01T17:06:03.231Z,4.4
2022-11-01T17:10:56.504Z,4.1
2022-11-01T17:15:49.725Z,4.5
2022-11-01T17:18:16.455Z,4.1
2022-11-01T17:20:42.965Z,4.8
2022-11-01T17:25:34.761Z,4
2022-11-01T17:30:27.964Z,2.7
2022-11-01T17:35:21.296Z,2
2022-11-01T17:40:14.454Z,2.3
2022-11-01T17:42:41.086Z,2.3
2022-11-01T17:45:07.763Z,2.1
2022-11-01T17:47:34.321Z,2.5
2022-11-01T17:50:00.949Z,2.6
2022-11-01T17:52:27.618Z,3.5
2022-11-01T17:54:54.243Z,3.2
2022-11-01T17:59:45.995Z,4
2022-11-01T18:02:12.624Z,3.9
2022-11-01T18:04:39.224Z,3.9
2022-11-01T18:07:05.854Z,5.7
2022-11-01T18:09:32.444Z,4
2022-11-01T18:11:59.136Z,4.3
2022-11-01T18:14:25.690Z,4
2022-11-01T18:16:52.349Z,3.7
2022-11-01T18:19:18.936Z,3.2
2022-11-01T18:21:45.540Z,3.5
2022-11-01T18:24:12.215Z,2.9
2022-11-01T18:26:38.803Z,2.7
2022-11-01T18:29:03.934Z,2.2
2022-11-01T18:31:29.218Z,2.8
2022-11-01T18:33:54.207Z,2.1
2022-11-01T18:36:20.806Z,2.5
2022-11-01T18:38:47.478Z,2.4
2022-11-01T18:41:14.094Z,2.6
2022-11-01T18:43:40.791Z,2
2022-11-01T18:48:33.927Z,3.1
2022-11-01T18:51:00.612Z,2.9
2022-11-01T18:53:27.211Z,4.7
2022-11-01T18:55:53.793Z,3.3
2022-11-01T18:58:20.529Z,3.4
2022-11-01T19:00:47.098Z,2.9
2022-11-01T19:03:13.687Z,3.9
2022-11-01T19:05:38.877Z,3.7
2022-11-01T19:08:05.460Z,3
2022-11-01T19:12:58.685Z,4.5
2022-11-01T19:15:23.785Z,3.3
2022-11-01T19:17:48.915Z,3.9
2022-11-01T19:20:15.577Z,5.7
2022-11-01T19:22:42.280Z,8.4
2022-11-01T19:25:08.834Z,6.9
2022-11-01T19:27:35.468Z,7.5
2022-11-01T19:32:28.637Z,4.8
2022-11-01T19:37:21.999Z,5.9
2022-11-01T19:39:48.504Z,5.1
2022-11-01T19:42:15.197Z,3.8
2022-11-01T19:44:41.798Z,3.4
2022-11-01T19:47:08.495Z,3.4
2022-11-01T19:52:00.124Z,4.8
2022-11-01T19:56:53.423Z,4.5
2022-11-01T19:59:20.112Z,5.9
2022-11-01T20:01:46.728Z,3.5
2022-11-01T20:04:13.332Z,5.6
2022-11-01T20:06:39.868Z,7.3
2022-11-01T20:09:06.524Z,8
2022-11-01T20:11:33.110Z,5.2
2022-11-01T20:16:26.447Z,5.1
2022-11-01T20:18:53.356Z,4.6
2022-11-01T20:26:12.890Z,5.7
2022-11-01T20:28:37.970Z,6.7
2022-11-01T20:31:04.662Z,6.4
2022-11-01T20:33:31.237Z,6.6
2022-11-01T20:35:57.854Z,4.8
2022-11-01T20:40:51.166Z,12.3
2022-11-01T20:43:17.714Z,9.2
2022-11-01T20:45:44.410Z,6.7
2022-11-01T20:48:11.048Z,13.8
2022-11-01T20:50:37.693Z,15
2022-11-01T21:00:24.200Z,8.9
2022-11-01T21:05:15.831Z,5.2
2022-11-01T21:07:42.452Z,5
2022-11-01T21:10:09.100Z,5.6
2022-11-01T21:15:02.337Z,6
2022-11-01T21:17:28.997Z,5
2022-11-01T21:19:55.569Z,5.1
2022-11-01T21:24:48.882Z,4.3
2022-11-01T21:29:42.063Z,6.1
2022-11-01T21:34:35.327Z,4.2
2022-11-01T21:39:27.071Z,4.8
2022-11-01T21:41:53.689Z,4.9
2022-11-01T21:44:20.306Z,5.5
2022-11-01T21:49:13.557Z,4.8
2022-11-01T21:54:06.833Z,9.5
2022-11-01T21:56:33.419Z,12.8
2022-11-01T21:59:00.059Z,8.4
2022-11-01T22:01:26.666Z,7.9
2022-11-01T22:03:53.287Z,8.8
2022-11-01T22:06:19.917Z,6.9
2022-11-01T22:08:45.073Z,6
2022-11-01T22:11:11.707Z,6.1
2022-11-01T22:13:38.340Z,6.2
2022-11-01T22:16:04.925Z,6.3
2022-11-01T22:18:31.531Z,5.3
2022-11-01T22:20:58.159Z,6.1
2022-11-01T22:23:24.778Z,8.8
2022-11-01T22:25:51.417Z,8.8
2022-11-01T22:28:18.083Z,6.2
2022-11-01T22:30:44.644Z,5.3
2022-11-01T22:33:11.274Z,6.8
2022-11-01T22:35:37.888Z,7.6
2022-11-01T22:38:04.523Z,6.6
2022-11-01T22:40:29.666Z,8.1
2022-11-01T22:42:54.778Z,9.8
2022-11-01T22:45:21.430Z,4.8
2022-11-01T22:47:48.030Z,5.3
2022-11-01T22:50:14.644Z,5.2
2022-11-01T22:52:41.309Z,6.3
2022-11-01T22:57:34.523Z,10.1
2022-11-01T23:00:01.228Z,10.8
2022-11-01T23:02:27.805Z,8.8
2022-11-01T23:04:52.904Z,7.8
2022-11-01T23:07:19.518Z,7.8
2022-11-01T23:09:46.166Z,7.3
2022-11-01T23:12:12.780Z,8.3
2022-11-01T23:14:39.438Z,7.6
2022-11-01T23:17:06.027Z,6.3
2022-11-01T23:19:32.639Z,6.5
2022-11-01T23:21:59.315Z,5.7
2022-11-01T23:24:25.964Z,5.8
2022-11-01T23:26:52.525Z,4
2022-11-01T23:29:19.226Z,5.1
2022-11-01T23:31:45.767Z,5.6
2022-11-01T23:34:10.917Z,7.3
2022-11-01T23:36:37.581Z,12.5
2022-11-01T23:39:02.733Z,9
2022-11-01T23:41:29.259Z,8
2022-11-01T23:43:55.938Z,7.8
2022-11-01T23:46:22.543Z,8.6
2022-11-01T23:48:49.125Z,11.6
2022-11-01T23:51:15.789Z,10.2
2022-11-01T23:53:42.390Z,9.3
2022-11-01T23:56:09.006Z,9.1
